createdAt,value
2017-08-09T00:02:23.149Z,70.00
2017-08-09T00:04:50.723Z,70.40
2017-08-09T00:07:18.274Z,70.80
2017-08-09T00:09:45.878Z,71.10
2017-08-09T00:12:13.422Z,71.30
2017-08-09T00:14:41.004Z,72.00
2017-08-09T00:17:08.573Z,72.20
2017-08-09T00:19:36.896Z,73.40
2017-08-09T00:22:04.450Z,73.40
2017-08-09T00:24:32.025Z,74.00
2017-08-09T00:26:59.616Z,74.60
2017-08-09T00:29:27.168Z,75.20
2017-08-09T00:31:54.848Z,76.70
2017-08-09T00:34:23.151Z,79.30
2017-08-09T00:36:50.721Z,79.30
2017-08-09T00:39:18.300Z,80.00
2017-08-09T00:41:45.867Z,82.60
2017-08-09T00:44:13.378Z,84.30
2017-08-09T00:46:40.938Z,86.40
2017-08-09T00:49:08.453Z,87.40
2017-08-09T00:51:36.070Z,88.90
2017-08-09T00:54:03.690Z,89.90
2017-08-09T00:56:31.257Z,90.30
2017-08-09T00:58:59.554Z,90.30
2017-08-09T01:01:27.139Z,90.20
2017-08-09T01:03:54.671Z,90.20
2017-08-09T01:06:22.181Z,90.10
2017-08-09T01:08:49.783Z,90.10
2017-08-09T01:11:18.125Z,90.60
2017-08-09T01:13:45.653Z,90.60
2017-08-09T01:16:13.278Z,90.80
2017-08-09T01:18:40.834Z,91.30
2017-08-09T01:21:09.105Z,92.60
2017-08-09T01:23:36.720Z,92.60
2017-08-09T01:26:04.245Z,92.80
2017-08-09T01:28:31.756Z,93.30
2017-08-09T01:30:59.382Z,93.20
2017-08-09T01:33:26.938Z,93.30
2017-08-09T01:35:54.519Z,93.50
2017-08-09T01:38:22.075Z,93.70
2017-08-09T01:40:49.592Z,94.00
2017-08-09T01:43:17.158Z,94.30
2017-08-09T01:45:44.901Z,94.50
2017-08-09T01:48:12.441Z,94.30
2017-08-09T01:50:39.989Z,94.40
2017-08-09T01:53:07.522Z,94.30
2017-08-09T01:55:35.080Z,94.30
2017-08-09T01:58:02.582Z,94.50
2017-08-09T02:00:30.191Z,94.50
2017-08-09T02:02:57.754Z,94.50
2017-08-09T02:05:25.322Z,94.60
2017-08-09T02:07:53.075Z,94.70
2017-08-09T02:10:20.539Z,94.60
2017-08-09T02:12:48.090Z,94.50
2017-08-09T02:15:15.653Z,94.60
2017-08-09T02:17:43.163Z,94.60
2017-08-09T02:20:10.724Z,94.20
2017-08-09T02:22:38.310Z,94.20
2017-08-09T02:25:05.846Z,94.50
2017-08-09T02:27:33.338Z,94.50
2017-08-09T02:30:00.960Z,94.40
2017-08-09T02:32:28.551Z,94.60
2017-08-09T02:34:56.856Z,94.20
2017-08-09T02:37:24.470Z,94.20
2017-08-09T02:39:51.959Z,94.20
2017-08-09T02:42:19.557Z,94.20
2017-08-09T02:44:47.150Z,94.40
2017-08-09T02:47:14.668Z,94.40
2017-08-09T02:49:42.202Z,94.40
2017-08-09T02:52:09.726Z,94.50
2017-08-09T02:54:38.037Z,94.40
2017-08-09T02:57:05.616Z,94.40
2017-08-09T02:59:33.205Z,94.30
2017-08-09T03:02:00.753Z,94.40
2017-08-09T03:04:28.294Z,94.50
2017-08-09T03:06:55.985Z,94.50
2017-08-09T03:09:23.534Z,94.60
2017-08-09T03:11:51.124Z,94.30
2017-08-09T03:14:18.718Z,94.30
2017-08-09T03:16:47.033Z,94.20
2017-08-09T03:19:14.631Z,94.20
2017-08-09T03:21:42.391Z,94.20
2017-08-09T03:24:09.939Z,94.10
2017-08-09T03:26:37.478Z,94.20
2017-08-09T03:29:05.071Z,94.10
2017-08-09T03:31:32.604Z,93.90
2017-08-09T03:34:00.180Z,94.00
2017-08-09T03:36:27.908Z,94.10
2017-08-09T03:38:55.434Z,94.10
2017-08-09T03:41:23.722Z,94.00
2017-08-09T03:43:51.376Z,94.00
2017-08-09T03:46:18.881Z,93.90
2017-08-09T03:48:46.469Z,93.80
2017-08-09T03:51:14.123Z,93.60
2017-08-09T03:53:41.667Z,93.70
2017-08-09T03:56:09.196Z,93.60
2017-08-09T03:58:36.748Z,93.70
2017-08-09T04:01:04.279Z,93.60
2017-08-09T04:03:31.862Z,93.40
2017-08-09T04:06:00.174Z,91.40
2017-08-09T04:08:27.751Z,91.40
2017-08-09T04:10:55.339Z,90.70
2017-08-09T04:13:22.909Z,90.80
2017-08-09T04:15:51.210Z,91.80
2017-08-09T04:18:18.770Z,91.50
2017-08-09T04:20:46.326Z,91.70
2017-08-09T04:23:13.886Z,91.40
2017-08-09T04:25:41.439Z,90.70
2017-08-09T04:28:09.745Z,84.10
2017-08-09T04:30:37.260Z,84.10
2017-08-09T04:33:05.126Z,84.90
2017-08-09T04:35:32.745Z,86.60
2017-08-09T04:38:00.285Z,84.80
2017-08-09T04:40:27.886Z,80.00
2017-08-09T04:42:55.506Z,74.70
2017-08-09T04:45:23.043Z,71.10
2017-08-09T04:47:50.644Z,66.20
2017-08-09T04:50:18.245Z,63.70
2017-08-09T04:52:45.761Z,60.50
2017-08-09T04:55:13.349Z,57.80
2017-08-09T04:57:40.909Z,56.00
2017-08-09T05:00:08.446Z,54.00
2017-08-09T05:02:35.969Z,52.00
2017-08-09T05:05:03.577Z,52.10
2017-08-09T05:07:31.113Z,50.50
2017-08-09T05:09:58.617Z,49.40
2017-08-09T05:12:26.213Z,50.50
2017-08-09T05:14:53.756Z,50.50
2017-08-09T05:17:21.333Z,50.60
2017-08-09T05:19:48.891Z,50.00
2017-08-09T05:22:16.456Z,50.60
2017-08-09T05:24:43.999Z,49.10
2017-08-09T05:27:11.595Z,51.70
2017-08-09T05:29:39.138Z,52.50
2017-08-09T05:32:06.661Z,52.90
2017-08-09T05:34:34.523Z,54.30
2017-08-09T05:37:02.866Z,53.40
2017-08-09T05:39:30.397Z,53.30
2017-08-09T05:41:58.086Z,52.90
2017-08-09T05:44:25.611Z,56.90
2017-08-09T05:46:53.166Z,61.10
2017-08-09T05:49:20.728Z,63.80
2017-08-09T05:51:48.301Z,67.10
2017-08-09T05:54:15.849Z,68.50
2017-08-09T05:56:43.401Z,70.80
2017-08-09T05:59:10.923Z,71.40
2017-08-09T06:01:39.232Z,75.80
2017-08-09T06:04:06.763Z,75.70
2017-08-09T06:06:35.107Z,76.40
2017-08-09T06:09:02.651Z,76.50
2017-08-09T06:11:30.270Z,73.80
2017-08-09T06:13:57.815Z,74.50
2017-08-09T06:16:26.151Z,68.70
2017-08-09T06:18:53.749Z,68.80
2017-08-09T06:21:21.301Z,66.90
2017-08-09T06:23:48.834Z,67.40
2017-08-09T06:26:16.451Z,68.10
2017-08-09T06:28:43.962Z,68.60
2017-08-09T06:31:11.577Z,70.40
2017-08-09T06:33:39.192Z,70.40
2017-08-09T06:36:06.775Z,71.20
2017-08-09T06:38:34.327Z,71.70
2017-08-09T06:41:01.939Z,72.60
2017-08-09T06:43:29.518Z,72.60
2017-08-09T06:45:57.037Z,73.30
2017-08-09T06:48:24.569Z,73.00
2017-08-09T06:50:52.113Z,73.40
2017-08-09T06:53:19.641Z,73.30
2017-08-09T06:55:47.402Z,71.20
2017-08-09T06:58:14.958Z,68.90
2017-08-09T07:00:42.473Z,68.80
2017-08-09T07:03:10.226Z,68.90
2017-08-09T07:05:37.717Z,70.80
2017-08-09T07:08:05.289Z,72.30
2017-08-09T07:10:33.586Z,73.30
2017-08-09T07:13:01.111Z,73.30
2017-08-09T07:15:29.415Z,71.70
2017-08-09T07:17:57.091Z,71.70
2017-08-09T07:20:24.658Z,70.90
2017-08-09T07:22:52.201Z,72.40
2017-08-09T07:25:19.760Z,73.90
2017-08-09T07:27:47.263Z,71.10
2017-08-09T07:30:14.818Z,68.50
2017-08-09T07:32:42.452Z,64.90
2017-08-09T07:35:10.003Z,63.80
2017-08-09T07:37:37.533Z,61.70
2017-08-09T07:40:05.109Z,59.30
2017-08-09T07:42:32.643Z,61.20
2017-08-09T07:45:00.245Z,61.50
2017-08-09T07:47:27.834Z,57.30
2017-08-09T07:49:55.390Z,53.10
2017-08-09T07:52:22.887Z,50.10
2017-08-09T07:54:51.269Z,50.50
2017-08-09T07:57:18.815Z,50.50
2017-08-09T07:59:46.337Z,52.60
2017-08-09T08:02:14.003Z,53.00
2017-08-09T08:04:41.532Z,54.90
2017-08-09T08:07:09.034Z,57.70
2017-08-09T08:09:36.626Z,58.20
2017-08-09T08:12:04.940Z,55.50
2017-08-09T08:14:32.479Z,55.50
2017-08-09T08:17:01.013Z,49.40
2017-08-09T08:19:28.529Z,49.30
2017-08-09T08:21:56.050Z,48.40
2017-08-09T08:24:29.088Z,48.40
2017-08-09T08:26:56.584Z,45.30
2017-08-09T08:29:24.131Z,43.20
2017-08-09T08:31:51.701Z,39.00
2017-08-09T08:34:19.234Z,37.10
2017-08-09T08:36:46.755Z,35.20
2017-08-09T08:39:14.467Z,34.30
2017-08-09T08:41:42.030Z,32.20
2017-08-09T08:44:09.530Z,31.80
2017-08-09T08:46:37.278Z,35.20
2017-08-09T08:49:04.829Z,37.40
2017-08-09T08:51:32.310Z,39.40
2017-08-09T08:53:59.858Z,39.00
2017-08-09T08:56:27.373Z,40.00
2017-08-09T08:58:54.924Z,37.40
2017-08-09T09:01:22.498Z,37.50
2017-08-09T09:03:50.048Z,35.50
2017-08-09T09:06:17.574Z,34.20
2017-08-09T09:08:45.308Z,32.40
2017-08-09T09:11:12.807Z,31.00
2017-08-09T09:13:40.315Z,31.50
2017-08-09T09:16:08.041Z,34.20
2017-08-09T09:18:35.593Z,37.70
2017-08-09T09:21:04.014Z,33.50
2017-08-09T09:23:31.628Z,32.90
2017-08-09T09:25:59.142Z,34.00
2017-08-09T09:28:26.674Z,40.10
2017-08-09T09:30:54.274Z,43.90
2017-08-09T09:33:21.805Z,45.80
2017-08-09T09:35:49.330Z,46.00
2017-08-09T09:38:17.264Z,47.30
2017-08-09T09:40:44.803Z,47.70
2017-08-09T09:43:12.356Z,45.90
2017-08-09T09:45:39.939Z,43.30
2017-08-09T09:48:07.452Z,40.30
2017-08-09T09:50:34.953Z,36.60
2017-08-09T09:53:02.678Z,36.30
2017-08-09T09:55:30.218Z,36.70
2017-08-09T09:57:58.566Z,42.10
2017-08-09T10:00:26.147Z,42.00
2017-08-09T10:02:53.627Z,43.10
2017-08-09T10:05:21.184Z,45.50
2017-08-09T10:07:48.734Z,46.60
2017-08-09T10:10:16.304Z,40.00
2017-08-09T10:12:43.813Z,36.80
2017-08-09T10:15:11.351Z,32.40
2017-08-09T10:17:38.887Z,29.90
2017-08-09T10:20:06.408Z,29.70
2017-08-09T10:22:34.123Z,29.80
2017-08-09T10:25:01.659Z,30.00
2017-08-09T10:27:29.216Z,29.20
2017-08-09T10:29:56.824Z,28.40
2017-08-09T10:32:24.367Z,29.20
2017-08-09T10:34:51.919Z,28.80
2017-08-09T10:37:19.445Z,28.50
2017-08-09T10:39:47.027Z,28.80
2017-08-09T10:42:14.574Z,27.30
2017-08-09T10:44:42.293Z,29.00
2017-08-09T10:47:09.870Z,30.40
2017-08-09T10:49:37.377Z,34.20
2017-08-09T10:52:05.110Z,34.10
2017-08-09T10:54:33.421Z,41.70
2017-08-09T10:57:00.948Z,41.50
2017-08-09T10:59:29.274Z,40.60
2017-08-09T11:01:56.827Z,40.60
2017-08-09T11:04:24.425Z,36.70
2017-08-09T11:06:51.925Z,38.90
2017-08-09T11:09:19.482Z,37.40
2017-08-09T11:11:47.014Z,34.40
2017-08-09T11:14:15.432Z,31.20
2017-08-09T11:16:42.922Z,31.10
2017-08-09T11:19:10.472Z,32.80
2017-08-09T11:21:38.036Z,35.00
2017-08-09T11:24:05.581Z,38.50
2017-08-09T11:26:33.112Z,37.00
2017-08-09T11:29:00.650Z,33.50
2017-08-09T11:31:29.420Z,32.00
2017-08-09T11:33:56.992Z,32.00
2017-08-09T11:36:24.662Z,34.00
2017-08-09T11:38:52.224Z,36.40
2017-08-09T11:41:19.744Z,34.30
2017-08-09T11:43:47.314Z,32.30
2017-08-09T11:46:14.870Z,32.00
2017-08-09T11:48:42.487Z,34.80
2017-08-09T11:51:10.063Z,38.10
2017-08-09T11:53:37.652Z,38.40
2017-08-09T11:56:05.182Z,38.90
2017-08-09T11:58:32.756Z,39.90
2017-08-09T12:01:00.295Z,42.00
2017-08-09T12:03:27.825Z,40.90
2017-08-09T12:05:56.179Z,41.30
2017-08-09T12:08:23.726Z,41.20
2017-08-09T12:10:51.214Z,41.10
2017-08-09T12:13:18.810Z,40.70
2017-08-09T12:15:46.320Z,40.80
2017-08-09T12:18:14.611Z,41.60
2017-08-09T12:20:42.183Z,41.60
2017-08-09T12:23:11.013Z,41.50
2017-08-09T12:25:38.562Z,41.40
2017-08-09T12:28:06.297Z,44.20
2017-08-09T12:30:33.915Z,43.30
2017-08-09T12:33:01.474Z,42.70
2017-08-09T12:35:29.098Z,42.60
2017-08-09T12:37:56.621Z,41.70
2017-08-09T12:40:24.188Z,40.70
2017-08-09T12:42:51.743Z,41.70
2017-08-09T12:45:20.078Z,43.40
2017-08-09T12:47:47.621Z,43.30
2017-08-09T12:50:15.178Z,44.50
2017-08-09T12:52:42.761Z,46.20
2017-08-09T12:55:10.350Z,44.30
2017-08-09T12:57:38.032Z,44.90
2017-08-09T13:00:05.584Z,45.80
2017-08-09T13:02:33.197Z,45.70
2017-08-09T13:05:00.875Z,46.40
2017-08-09T13:07:28.463Z,44.80
2017-08-09T13:09:56.838Z,44.30
2017-08-09T13:12:24.468Z,43.90
2017-08-09T13:14:52.041Z,44.70
2017-08-09T13:17:19.627Z,45.50
2017-08-09T13:19:47.212Z,46.70
2017-08-09T13:22:14.782Z,47.60
2017-08-09T13:24:42.335Z,49.40
2017-08-09T13:27:10.134Z,47.70
2017-08-09T13:29:37.690Z,48.00
2017-08-09T13:32:05.232Z,46.40
2017-08-09T13:34:32.994Z,44.80
2017-08-09T13:37:00.509Z,44.40
2017-08-09T13:39:28.147Z,43.70
2017-08-09T13:41:55.746Z,44.40
2017-08-09T13:44:23.314Z,45.40
2017-08-09T13:46:50.874Z,46.00
2017-08-09T13:49:18.446Z,44.50
2017-08-09T13:51:46.050Z,44.20
2017-08-09T13:54:13.593Z,42.70
2017-08-09T13:56:41.418Z,45.00
2017-08-09T13:59:08.984Z,47.20
2017-08-09T14:01:36.540Z,45.80
2017-08-09T14:04:04.113Z,45.60
2017-08-09T14:06:31.699Z,46.00
2017-08-09T14:08:59.304Z,46.10
2017-08-09T14:11:26.906Z,47.10
2017-08-09T14:13:54.486Z,47.40
2017-08-09T14:16:22.064Z,45.70
2017-08-09T14:18:49.803Z,45.20
2017-08-09T14:21:17.385Z,45.20
2017-08-09T14:23:44.889Z,45.60
2017-08-09T14:26:12.497Z,45.00
2017-08-09T14:28:40.071Z,46.00
2017-08-09T14:31:07.586Z,44.10
2017-08-09T14:33:35.297Z,43.00
2017-08-09T14:36:03.588Z,43.70
2017-08-09T14:38:31.905Z,43.50
2017-08-09T14:40:59.495Z,43.70
2017-08-09T14:43:27.015Z,43.40
2017-08-09T14:45:54.601Z,42.60
2017-08-09T14:48:22.317Z,40.80
2017-08-09T14:50:49.824Z,41.70
2017-08-09T14:53:17.347Z,42.60
2017-08-09T14:55:44.932Z,42.00
2017-08-09T14:58:12.520Z,44.20
2017-08-09T15:00:40.126Z,43.00
2017-08-09T15:03:07.728Z,43.20
2017-08-09T15:05:35.252Z,42.60
2017-08-09T15:08:02.791Z,44.60
2017-08-09T15:10:31.119Z,42.70
2017-08-09T15:12:58.628Z,42.70
2017-08-09T15:15:26.193Z,43.00
2017-08-09T15:17:53.904Z,43.40
2017-08-09T15:20:21.467Z,42.00
2017-08-09T15:22:49.019Z,43.30
2017-08-09T15:25:16.620Z,45.10
2017-08-09T15:27:44.225Z,44.30
2017-08-09T15:30:11.746Z,45.80
2017-08-09T15:32:40.146Z,44.60
2017-08-09T15:35:07.683Z,44.60
2017-08-09T15:37:35.231Z,43.80
2017-08-09T15:40:03.016Z,44.10
2017-08-09T15:42:30.599Z,44.10
2017-08-09T15:44:58.150Z,43.40
2017-08-09T15:47:25.735Z,43.80
2017-08-09T15:49:54.223Z,44.40
2017-08-09T15:52:21.827Z,45.10
2017-08-09T15:54:49.429Z,45.20
2017-08-09T15:57:16.992Z,44.60
2017-08-09T15:59:44.572Z,44.10
2017-08-09T16:02:12.315Z,44.80
2017-08-09T16:04:39.862Z,43.30
2017-08-09T16:07:07.414Z,42.50
2017-08-09T16:09:34.985Z,43.40
2017-08-09T16:12:02.548Z,43.90
2017-08-09T16:14:30.070Z,44.20
2017-08-09T16:16:57.687Z,45.80
2017-08-09T16:19:25.228Z,45.50
2017-08-09T16:21:52.796Z,45.90
2017-08-09T16:24:20.407Z,45.90
2017-08-09T16:26:48.745Z,45.80
2017-08-09T16:29:16.473Z,45.90
2017-08-09T16:31:44.087Z,45.20
2017-08-09T16:34:11.707Z,45.30
2017-08-09T16:36:39.459Z,46.80
2017-08-09T16:39:07.098Z,48.30
2017-08-09T16:41:34.750Z,48.50
2017-08-09T16:44:03.071Z,48.20
2017-08-09T16:46:31.059Z,48.40
2017-08-09T16:48:58.586Z,47.90
2017-08-09T16:51:26.169Z,49.20
2017-08-09T16:53:53.900Z,47.70
2017-08-09T16:56:23.193Z,50.00
2017-08-09T16:58:50.797Z,49.80
2017-08-09T17:01:18.387Z,51.70
2017-08-09T17:03:46.028Z,51.40
2017-08-09T17:06:13.672Z,52.40
2017-08-09T17:08:41.387Z,50.30
2017-08-09T17:11:09.723Z,52.30
2017-08-09T17:13:37.351Z,52.40
2017-08-09T17:16:05.494Z,51.10
2017-08-09T17:18:33.034Z,51.60
2017-08-09T17:21:00.620Z,52.70
2017-08-09T17:23:28.862Z,53.40
2017-08-09T17:25:56.639Z,53.50
2017-08-09T17:28:24.576Z,55.60
2017-08-09T17:30:52.182Z,55.60
2017-08-09T17:33:19.888Z,55.80
2017-08-09T17:35:47.567Z,56.10
2017-08-09T17:38:16.111Z,56.20
2017-08-09T17:40:45.043Z,58.70
2017-08-09T17:43:12.696Z,58.70
2017-08-09T17:45:40.325Z,58.20
2017-08-09T17:48:08.727Z,61.20
2017-08-09T17:50:36.376Z,61.20
2017-08-09T17:53:04.336Z,61.60
2017-08-09T17:55:32.827Z,61.60
2017-08-09T17:58:00.402Z,62.80
2017-08-09T18:00:28.523Z,63.00
2017-08-09T18:02:56.140Z,66.20
2017-08-09T18:05:24.484Z,66.20
2017-08-09T18:07:53.006Z,67.40
2017-08-09T18:10:20.602Z,67.50
2017-08-09T18:12:49.160Z,68.50
2017-08-09T18:15:19.496Z,68.70
2017-08-09T18:17:47.298Z,69.40
2017-08-09T18:20:15.079Z,70.50
2017-08-09T18:22:43.459Z,70.20
2017-08-09T18:25:11.055Z,70.40
2017-08-09T18:27:38.647Z,69.40
2017-08-09T18:30:06.301Z,69.20
2017-08-09T18:32:33.886Z,70.30
2017-08-09T18:35:03.057Z,71.90
2017-08-09T18:37:31.162Z,71.80
2017-08-09T18:39:58.771Z,71.80
2017-08-09T18:42:27.104Z,71.30
2017-08-09T18:44:55.865Z,72.30
2017-08-09T18:47:23.479Z,70.70
2017-08-09T18:49:51.096Z,69.80
2017-08-09T18:52:20.281Z,70.00
2017-08-09T18:54:47.890Z,69.90
2017-08-09T18:57:16.551Z,70.90
2017-08-09T18:59:49.315Z,72.90
2017-08-09T19:02:16.927Z,72.20
2017-08-09T19:04:44.524Z,72.60
2017-08-09T19:07:12.383Z,74.50
2017-08-09T19:09:40.033Z,75.30
2017-08-09T19:12:07.609Z,76.00
2017-08-09T19:14:37.170Z,76.60
2017-08-09T19:17:06.386Z,75.90
2017-08-09T19:19:34.027Z,76.40
2017-08-09T19:22:04.424Z,76.30
2017-08-09T19:24:32.939Z,76.10
2017-08-09T19:27:02.038Z,76.30
2017-08-09T19:29:29.893Z,75.60
2017-08-09T19:31:58.570Z,73.90
2017-08-09T19:34:26.186Z,72.40
2017-08-09T19:36:53.844Z,72.60
2017-08-09T19:39:21.445Z,73.80
2017-08-09T19:41:49.948Z,73.80
2017-08-09T19:44:17.616Z,74.40
2017-08-09T19:46:46.299Z,75.40
2017-08-09T19:49:13.908Z,75.40
2017-08-09T19:51:41.543Z,75.70
2017-08-09T19:54:09.117Z,76.60
2017-08-09T19:56:36.691Z,76.30
2017-08-09T19:59:05.183Z,77.10
2017-08-09T20:01:32.766Z,78.00
2017-08-09T20:04:00.275Z,76.80
2017-08-09T20:06:28.469Z,76.10
2017-08-09T20:08:56.061Z,76.70
2017-08-09T20:11:23.675Z,75.20
2017-08-09T20:13:51.307Z,73.70
2017-08-09T20:16:18.855Z,73.40
2017-08-09T20:18:47.371Z,73.20
2017-08-09T20:21:15.022Z,73.10
2017-08-09T20:23:42.599Z,72.50
2017-08-09T20:26:10.165Z,72.20
2017-08-09T20:28:37.911Z,71.70
2017-08-09T20:31:05.503Z,72.40
2017-08-09T20:33:33.040Z,73.10
2017-08-09T20:36:00.634Z,72.90
2017-08-09T20:38:29.204Z,72.70
2017-08-09T20:40:58.499Z,72.40
2017-08-09T20:43:27.143Z,72.40
2017-08-09T20:45:54.698Z,72.00
2017-08-09T20:48:22.355Z,71.90
2017-08-09T20:50:52.532Z,71.30
2017-08-09T20:53:20.171Z,71.60
2017-08-09T20:55:47.730Z,71.40
2017-08-09T20:58:15.337Z,70.90
2017-08-09T21:00:42.891Z,72.10
2017-08-09T21:03:10.438Z,72.70
2017-08-09T21:05:38.042Z,72.80
2017-08-09T21:08:05.612Z,72.20
2017-08-09T21:10:33.939Z,71.80
2017-08-09T21:13:01.557Z,71.70
2017-08-09T21:15:29.111Z,71.70
2017-08-09T21:17:56.676Z,71.40
2017-08-09T21:20:25.002Z,71.40
2017-08-09T21:22:52.669Z,71.40
2017-08-09T21:25:20.200Z,71.60
2017-08-09T21:27:47.860Z,71.60
2017-08-09T21:30:15.453Z,71.40
2017-08-09T21:32:43.010Z,71.60
2017-08-09T21:35:10.550Z,71.70
2017-08-09T21:37:38.143Z,72.10
2017-08-09T21:40:05.836Z,72.90
2017-08-09T21:42:33.402Z,74.30
2017-08-09T21:45:01.083Z,74.10
2017-08-09T21:47:28.637Z,74.30
2017-08-09T21:49:56.212Z,74.10
2017-08-09T21:52:23.762Z,74.00
2017-08-09T21:54:51.315Z,74.00
2017-08-09T21:57:19.739Z,73.70
2017-08-09T21:59:47.322Z,73.40
2017-08-09T22:02:14.885Z,73.20
2017-08-09T22:04:43.326Z,73.60
2017-08-09T22:07:10.950Z,72.80
2017-08-09T22:09:38.527Z,72.80
2017-08-09T22:12:06.072Z,72.70
2017-08-09T22:14:33.738Z,73.00
2017-08-09T22:17:01.297Z,73.10
2017-08-09T22:19:28.942Z,73.10
2017-08-09T22:24:50.018Z,73.20
2017-08-09T22:27:17.708Z,73.30
2017-08-09T22:29:47.208Z,73.00
2017-08-09T22:32:16.808Z,72.90
2017-08-09T22:35:01.885Z,73.10
2017-08-09T22:37:30.077Z,73.10
2017-08-09T22:40:08.662Z,74.40
2017-08-09T22:42:36.449Z,76.30
2017-08-09T22:45:11.428Z,81.20
2017-08-09T23:07:44.448Z,98.70
2017-08-09T23:10:12.100Z,98.40
2017-08-09T23:12:39.763Z,98.30
2017-08-09T23:15:07.449Z,97.70
2017-08-09T23:17:35.107Z,97.50
2017-08-09T23:20:02.762Z,97.70
2017-08-09T23:22:30.434Z,97.70
2017-08-09T23:25:05.856Z,97.10
2017-08-09T23:27:33.516Z,96.20
2017-08-09T23:30:01.145Z,95.90
2017-08-09T23:32:28.803Z,95.80
2017-08-09T23:37:33.094Z,95.90
2017-08-09T23:40:00.766Z,96.40
2017-08-09T23:42:47.864Z,96.40
2017-08-09T23:45:20.942Z,96.70
2017-08-09T23:47:52.479Z,96.40
2017-08-09T23:50:20.127Z,96.60
2017-08-09T23:52:47.927Z,96.30
2017-08-09T23:55:18.118Z,96.90
2017-08-09T23:57:45.872Z,97.00
